Time;durP1;ratioP1;P1;durP2;ratioP2;P2;SDS_P1;SDS_P2;PMS_P1;PMS_P2;Temp;Humidity;BMP_temperature;BMP_pressure;BME280_temperature;BME280_humidity;BME280_pressure;Samples;Min_cycle;Max_cycle;Signal;HPM_P1;HPM_P2
2021/01/19 00:01:09;;;;;;;34.55;18.75;;;4.80;96.70;;;;;;5137815;27;20043;-60
2021/01/19 00:03:35;;;;;;;36.15;19.55;;;4.90;96.80;;;;;;5137765;27;20750;-60
2021/01/19 00:06:01;;;;;;;37.50;18.58;;;4.80;96.90;;;;;;5137808;27;20063;-60
2021/01/19 00:08:27;;;;;;;31.50;17.58;;;4.90;96.80;;;;;;5137198;27;20035;-60
2021/01/19 00:10:53;;;;;;;36.05;17.13;;;4.90;96.80;;;;;;5137358;27;20053;-60
2021/01/19 00:13:21;;;;;;;28.67;17.23;;;4.90;96.70;;;;;;5137375;27;20456;-61
2021/01/19 00:15:47;;;;;;;31.67;15.97;;;5.00;96.80;;;;;;5137400;27;20404;-60
2021/01/19 00:18:14;;;;;;;31.45;15.43;;;5.00;96.80;;;;;;5137206;27;20039;-61
2021/01/19 00:20:40;;;;;;;31.48;16.48;;;5.00;96.70;;;;;;5137577;27;20043;-60
2021/01/19 00:23:06;;;;;;;35.65;15.55;;;5.00;96.80;;;;;;5137099;27;20039;-61
2021/01/19 00:25:34;;;;;;;28.35;14.65;;;5.10;96.80;;;;;;5137341;27;20050;-60
2021/01/19 00:28:00;;;;;;;28.60;16.00;;;5.00;96.80;;;;;;5136987;27;20050;-60
2021/01/19 00:30:26;;;;;;;24.85;12.73;;;5.10;96.80;;;;;;5136806;27;20039;-60
2021/01/19 00:32:51;;;;;;;31.10;13.95;;;5.10;96.80;;;;;;5137081;27;20047;-59
2021/01/19 00:35:17;;;;;;;27.08;13.05;;;5.10;97.00;;;;;;5137159;27;20051;-60
2021/01/19 00:37:43;;;;;;;32.58;13.52;;;5.10;97.10;;;;;;5137042;27;20043;-60
2021/01/19 00:40:10;;;;;;;24.40;12.75;;;5.10;97.00;;;;;;5118462;27;20047;-60
2021/01/19 00:42:35;;;;;;;31.90;13.20;;;5.10;96.90;;;;;;5136615;27;20043;-60
2021/01/19 00:45:01;;;;;;;18.33;12.93;;;5.10;96.70;;;;;;5136519;27;20054;-60
2021/01/19 00:47:27;;;;;;;21.98;12.32;;;5.10;96.90;;;;;;5136647;27;20049;-60
2021/01/19 00:49:53;;;;;;;25.48;13.20;;;5.00;96.80;;;;;;5136718;27;20051;-60
2021/01/19 00:52:18;;;;;;;27.52;11.60;;;5.10;96.80;;;;;;5136513;27;20053;-60
2021/01/19 00:54:44;;;;;;;20.75;11.63;;;5.10;96.80;;;;;;5136842;27;20369;-60
2021/01/19 00:57:10;;;;;;;27.80;11.80;;;5.10;97.00;;;;;;5136864;27;20039;-60
2021/01/19 00:59:36;;;;;;;20.75;11.00;;;5.10;96.60;;;;;;5136729;27;20469;-60
2021/01/19 01:02:02;;;;;;;18.45;10.48;;;5.10;96.60;;;;;;5136676;27;20050;-60
2021/01/19 01:04:27;;;;;;;22.17;11.05;;;5.10;96.70;;;;;;5136661;27;20043;-60
2021/01/19 01:06:54;;;;;;;21.63;12.10;;;5.10;96.80;;;;;;5136274;27;20404;-60
2021/01/19 01:09:19;;;;;;;25.45;12.18;;;5.10;96.90;;;;;;5135621;27;20050;-60
2021/01/19 01:11:45;;;;;;;23.05;13.07;;;5.00;97.10;;;;;;5135723;27;20043;-60
2021/01/19 01:14:12;;;;;;;29.25;15.48;;;5.00;97.10;;;;;;5136048;27;20050;-60
2021/01/19 01:16:38;;;;;;;28.58;15.65;;;5.00;97.20;;;;;;5136289;27;20046;-60
2021/01/19 01:19:06;;;;;;;28.83;18.23;;;5.00;97.10;;;;;;5136037;27;20039;-61
2021/01/19 01:21:39;;;;;;;28.90;18.25;;;5.00;97.30;;;;;;5135806;27;20039;-60
2021/01/19 01:24:06;;;;;;;27.30;18.60;;;5.00;97.30;;;;;;5136040;27;20787;-61
2021/01/19 01:26:36;;;;;;;27.05;19.08;;;5.00;97.30;;;;;;5135786;27;20043;-60
2021/01/19 01:29:06;;;;;;;30.48;21.23;;;5.00;97.30;;;;;;5135469;27;20129;-60
2021/01/19 01:31:32;;;;;;;25.80;19.20;;;5.00;97.30;;;;;;5135708;27;20088;-60
2021/01/19 01:33:58;;;;;;;27.27;19.45;;;5.00;97.30;;;;;;5135596;27;20054;-61
2021/01/19 01:36:24;;;;;;;33.17;21.15;;;5.00;97.40;;;;;;5135217;27;20039;-60
2021/01/19 01:38:50;;;;;;;27.38;19.45;;;5.00;97.60;;;;;;5135667;27;20041;-60
2021/01/19 01:41:20;;;;;;;27.27;20.13;;;5.00;97.60;;;;;;5135281;27;20070;-61
2021/01/19 01:43:47;;;;;;;28.40;20.80;;;5.00;97.50;;;;;;5135670;27;20127;-61
2021/01/19 01:46:14;;;;;;;29.80;21.25;;;5.10;97.60;;;;;;5135406;27;20043;-61
2021/01/19 01:48:44;;;;;;;31.52;21.85;;;5.10;97.50;;;;;;5135602;27;20039;-60
2021/01/19 01:51:11;;;;;;;32.10;21.08;;;5.10;97.40;;;;;;5135035;27;20472;-61
2021/01/19 01:53:41;;;;;;;34.95;23.75;;;5.10;97.60;;;;;;5134907;27;20041;-60
2021/01/19 01:56:07;;;;;;;36.92;21.83;;;5.10;97.60;;;;;;5135171;27;20139;-60
2021/01/19 01:58:34;;;;;;;35.60;23.33;;;5.20;97.50;;;;;;5134992;27;20071;-60
2021/01/19 02:01:00;;;;;;;39.03;25.25;;;5.20;97.60;;;;;;5135261;27;20047;-60
2021/01/19 02:03:26;;;;;;;38.47;25.73;;;5.20;97.60;;;;;;5135258;27;20035;-60
2021/01/19 02:05:51;;;;;;;39.03;25.25;;;5.20;97.50;;;;;;5134943;27;20047;-60
2021/01/19 02:08:50;;;;;;;37.17;23.65;;;5.20;97.60;;;;;;5134765;27;20075;-61
2021/01/19 02:11:41;;;;;;;38.47;25.05;;;5.30;97.50;;;;;;5071412;28;20044;-59
2021/01/19 02:14:34;;;;;;;41.65;26.80;;;5.30;97.40;;;;;;5071389;28;20512;-60
2021/01/19 02:17:26;;;;;;;49.20;26.45;;;5.30;97.50;;;;;;5071252;28;20084;-60
2021/01/19 02:20:40;;;;;;;47.92;26.17;;;5.30;97.60;;;;;;5071572;28;20045;-60
2021/01/19 02:23:17;;;;;;;50.80;27.08;;;5.30;97.70;;;;;;4972833;28;20046;-60
2021/01/19 02:25:52;;;;;;;51.80;27.48;;;5.30;97.70;;;;;;4972858;28;20518;-60
2021/01/19 02:28:40;;;;;;;47.55;26.30;;;5.30;97.80;;;;;;4972394;28;20609;-61
2021/01/19 02:31:43;;;;;;;41.22;25.42;;;5.30;97.70;;;;;;4972629;28;20042;-60
2021/01/19 02:34:16;;;;;;;38.03;24.33;;;5.40;97.60;;;;;;4956315;28;20051;-60
2021/01/19 02:37:10;;;;;;;53.67;25.88;;;5.50;97.50;;;;;;4972756;28;20043;-61
2021/01/19 02:39:49;;;;;;;34.25;23.23;;;5.40;97.50;;;;;;4972673;28;20105;-59
2021/01/19 02:42:21;;;;;;;35.05;23.42;;;5.50;97.50;;;;;;4972304;28;20055;-60
2021/01/19 02:44:48;;;;;;;40.70;23.98;;;5.40;97.30;;;;;;4972554;28;20101;-59
2021/01/19 02:47:15;;;;;;;34.75;23.33;;;5.40;97.40;;;;;;4991634;28;20084;-60
2021/01/19 02:49:44;;;;;;;33.70;23.38;;;5.40;97.40;;;;;;5031289;28;20527;-60
2021/01/19 02:52:13;;;;;;;38.15;23.17;;;5.40;97.30;;;;;;5031156;28;20053;-60
2021/01/19 02:54:40;;;;;;;37.70;22.00;;;5.40;97.20;;;;;;5031254;28;20069;-60
2021/01/19 02:57:15;;;;;;;37.58;23.05;;;5.40;97.00;;;;;;5031371;28;20045;-61
2021/01/19 03:00:03;;;;;;;37.05;22.63;;;5.40;97.00;;;;;;5134526;27;20122;-61
2021/01/19 03:02:37;;;;;;;34.92;23.05;;;5.40;97.20;;;;;;5134222;27;20501;-61
2021/01/19 03:05:07;;;;;;;29.55;21.05;;;5.40;97.10;;;;;;5134649;27;20047;-61
2021/01/19 03:07:36;;;;;;;28.33;20.00;;;5.40;97.00;;;;;;5134419;27;20407;-61
2021/01/19 03:10:03;;;;;;;29.35;19.77;;;5.40;97.10;;;;;;5134415;27;20058;-61
2021/01/19 03:12:30;;;;;;;33.30;20.42;;;5.40;97.00;;;;;;5134554;27;20074;-61
2021/01/19 03:14:56;;;;;;;32.92;20.25;;;5.40;97.00;;;;;;5134237;27;20078;-60
2021/01/19 03:17:21;;;;;;;28.00;19.60;;;5.40;96.90;;;;;;5134319;27;20433;-61
2021/01/19 03:19:48;;;;;;;31.88;19.02;;;5.40;96.80;;;;;;5134517;27;20039;-60
2021/01/19 03:22:14;;;;;;;33.45;18.90;;;5.30;96.60;;;;;;5134623;27;20080;-61
2021/01/19 03:24:41;;;;;;;27.08;19.20;;;5.30;96.80;;;;;;5134675;27;20436;-60
2021/01/19 03:27:07;;;;;;;23.13;16.40;;;5.40;96.90;;;;;;5134182;27;20473;-60
2021/01/19 03:29:34;;;;;;;20.55;16.58;;;5.30;96.50;;;;;;5133408;28;20122;-60
2021/01/19 03:32:00;;;;;;;25.08;16.33;;;5.40;96.60;;;;;;5134664;27;20058;-61
2021/01/19 03:34:25;;;;;;;26.92;15.57;;;5.30;96.80;;;;;;5137783;27;20456;-61
2021/01/19 03:36:51;;;;;;;25.00;15.73;;;5.30;96.90;;;;;;5138917;27;20043;-60
2021/01/19 03:39:17;;;;;;;27.15;17.40;;;5.30;96.80;;;;;;5136956;27;20484;-60
2021/01/19 03:41:43;;;;;;;28.17;16.85;;;5.20;97.20;;;;;;5138730;27;20047;-60
2021/01/19 03:44:09;;;;;;;27.38;16.90;;;5.30;97.10;;;;;;5138630;27;20055;-60
2021/01/19 03:46:35;;;;;;;26.85;15.98;;;5.20;97.20;;;;;;5138712;27;20046;-60
2021/01/19 03:49:01;;;;;;;24.80;14.77;;;5.20;97.20;;;;;;5138660;27;20047;-60
2021/01/19 03:51:27;;;;;;;15.70;12.32;;;5.20;97.20;;;;;;5138734;27;20096;-60
2021/01/19 03:53:53;;;;;;;17.05;13.35;;;5.20;97.20;;;;;;5138154;27;20059;-60
2021/01/19 03:56:20;;;;;;;17.77;12.15;;;5.20;97.30;;;;;;5138638;27;20039;-60
2021/01/19 03:58:46;;;;;;;18.35;11.35;;;5.10;97.30;;;;;;5138446;27;20065;-60
2021/01/19 04:01:12;;;;;;;20.55;11.30;;;5.10;97.30;;;;;;5138074;27;20118;-60
2021/01/19 04:03:38;;;;;;;19.17;11.02;;;5.10;97.20;;;;;;5137031;27;20071;-60
2021/01/19 04:06:07;;;;;;;16.15;9.75;;;5.10;97.30;;;;;;5138301;27;20384;-60
2021/01/19 04:08:34;;;;;;;15.88;9.70;;;5.10;97.10;;;;;;5138299;27;20392;-60
2021/01/19 04:11:00;;;;;;;13.68;8.75;;;5.10;97.20;;;;;;5138231;27;20051;-60
2021/01/19 04:13:26;;;;;;;13.82;8.40;;;5.10;97.30;;;;;;5138203;27;20179;-60
2021/01/19 04:15:53;;;;;;;15.95;7.75;;;5.10;97.20;;;;;;5138066;27;20130;-60
2021/01/19 04:18:18;;;;;;;12.95;8.23;;;5.10;97.40;;;;;;5138122;27;20035;-60
2021/01/19 04:20:44;;;;;;;10.38;7.25;;;5.10;97.40;;;;;;5137945;27;20070;-60
2021/01/19 04:23:13;;;;;;;12.50;7.63;;;5.10;97.40;;;;;;5138150;27;20062;-59
2021/01/19 04:25:44;;;;;;;11.85;8.00;;;5.10;97.40;;;;;;5137916;27;20043;-60
2021/01/19 04:28:10;;;;;;;10.55;7.13;;;5.10;97.50;;;;;;5137733;27;20039;-59
2021/01/19 04:30:37;;;;;;;14.82;7.70;;;5.10;97.30;;;;;;5137798;27;20043;-60
2021/01/19 04:33:03;;;;;;;12.10;6.93;;;5.10;97.30;;;;;;5136330;27;20066;-60
2021/01/19 04:35:29;;;;;;;10.32;6.80;;;5.10;97.20;;;;;;5137740;27;20043;-60
2021/01/19 04:37:55;;;;;;;8.68;6.15;;;5.10;97.60;;;;;;5137581;27;20054;-60
2021/01/19 04:40:21;;;;;;;11.00;6.45;;;5.10;97.20;;;;;;5137222;27;20504;-60
2021/01/19 04:42:47;;;;;;;12.45;5.82;;;5.10;97.20;;;;;;5137466;27;20039;-60
2021/01/19 04:45:15;;;;;;;12.57;6.07;;;5.10;97.10;;;;;;5137322;27;20050;-59
2021/01/19 04:47:40;;;;;;;9.52;5.85;;;5.10;97.10;;;;;;5137497;27;20401;-60
2021/01/19 04:50:13;;;;;;;10.43;5.25;;;5.10;97.00;;;;;;5137647;27;20047;-59
2021/01/19 04:52:41;;;;;;;12.38;6.00;;;5.10;97.00;;;;;;5137307;27;20129;-60
2021/01/19 04:55:09;;;;;;;11.30;5.75;;;5.10;97.00;;;;;;5137014;27;20047;-59
2021/01/19 04:57:37;;;;;;;10.93;5.95;;;5.20;96.90;;;;;;5137337;27;20140;-60
2021/01/19 05:00:13;;;;;;;10.48;5.82;;;5.10;97.10;;;;;;5137382;27;20043;-60
2021/01/19 05:02:58;;;;;;;11.52;5.40;;;5.20;97.00;;;;;;5137121;27;20043;-60
2021/01/19 05:05:36;;;;;;;7.57;4.63;;;5.20;96.80;;;;;;5137228;27;20096;-60
2021/01/19 05:08:02;;;;;;;10.38;5.78;;;5.20;96.80;;;;;;5136738;27;20043;-60
2021/01/19 05:10:37;;;;;;;12.35;4.70;;;5.10;97.10;;;;;;5137053;27;20135;-60
2021/01/19 05:13:10;;;;;;;10.05;4.88;;;5.10;97.20;;;;;;5136767;27;20055;-60
2021/01/19 05:15:39;;;;;;;6.63;4.43;;;5.10;97.10;;;;;;5136793;27;20047;-60
2021/01/19 05:18:12;;;;;;;7.78;4.90;;;5.10;97.00;;;;;;5136880;27;20114;-59
2021/01/19 05:20:45;;;;;;;6.38;4.60;;;5.10;97.10;;;;;;5136637;27;20541;-60
2021/01/19 05:23:21;;;;;;;8.38;4.88;;;5.10;97.20;;;;;;5136674;27;20491;-60
2021/01/19 05:26:08;;;;;;;6.88;3.97;;;5.10;97.00;;;;;;5136618;27;20090;-60
2021/01/19 05:28:39;;;;;;;6.10;3.90;;;5.10;97.10;;;;;;5136336;27;20039;-60
2021/01/19 05:31:27;;;;;;;7.50;4.50;;;5.20;96.80;;;;;;5136472;27;20047;-60
2021/01/19 05:33:54;;;;;;;12.40;4.72;;;5.10;97.00;;;;;;5136579;27;20067;-60
2021/01/19 05:36:33;;;;;;;8.45;4.50;;;5.10;96.90;;;;;;5136479;27;20047;-59
2021/01/19 05:38:59;;;;;;;7.07;3.75;;;5.00;97.10;;;;;;5136571;27;20088;-60
2021/01/19 05:41:41;;;;;;;6.10;4.25;;;5.00;97.00;;;;;;5136550;27;20043;-60
2021/01/19 05:44:20;;;;;;;8.15;4.15;;;5.10;97.00;;;;;;5136286;27;20059;-60
2021/01/19 05:46:52;;;;;;;8.20;4.28;;;5.10;96.90;;;;;;5136125;27;20057;-60
2021/01/19 05:49:23;;;;;;;6.70;3.50;;;5.10;96.90;;;;;;5136281;27;20049;-60
2021/01/19 05:51:54;;;;;;;6.95;3.63;;;5.10;96.70;;;;;;5136342;27;20047;-59
2021/01/19 05:54:22;;;;;;;5.32;3.60;;;5.10;96.80;;;;;;5135772;27;20458;-60
2021/01/19 05:56:49;;;;;;;11.57;4.17;;;5.10;96.90;;;;;;5135740;27;20047;-60
2021/01/19 05:59:30;;;;;;;5.85;4.18;;;5.10;96.90;;;;;;5136149;27;20308;-60
2021/01/19 06:02:00;;;;;;;9.50;3.53;;;5.10;97.00;;;;;;5136176;27;20140;-60
2021/01/19 06:04:40;;;;;;;5.82;3.50;;;5.00;97.00;;;;;;5136064;27;20050;-59
2021/01/19 06:07:07;;;;;;;4.47;3.55;;;5.00;96.80;;;;;;5135965;27;20047;-60
2021/01/19 06:09:34;;;;;;;6.07;3.72;;;5.10;96.90;;;;;;5136018;27;20067;-60
2021/01/19 06:12:01;;;;;;;5.90;3.67;;;5.10;96.60;;;;;;5133979;27;20039;-60
2021/01/19 06:14:28;;;;;;;4.75;3.50;;;5.10;96.80;;;;;;5135771;27;20345;-60
2021/01/19 06:17:11;;;;;;;6.60;3.75;;;5.10;96.80;;;;;;5135656;27;20039;-60
2021/01/19 06:19:40;;;;;;;4.32;3.78;;;5.10;96.90;;;;;;5135761;27;20043;-60
2021/01/19 06:22:27;;;;;;;8.32;3.53;;;5.10;97.00;;;;;;5135617;27;20043;-60
2021/01/19 06:24:54;;;;;;;4.50;3.63;;;5.10;97.00;;;;;;5135199;27;20057;-60
2021/01/19 06:27:20;;;;;;;8.02;4.55;;;5.10;97.10;;;;;;5135472;27;20043;-59
2021/01/19 06:29:46;;;;;;;5.57;4.72;;;5.10;97.10;;;;;;5135600;27;20039;-59
2021/01/19 06:32:14;;;;;;;8.85;4.60;;;5.10;97.40;;;;;;5135759;27;20103;-60
2021/01/19 06:34:40;;;;;;;5.13;3.85;;;5.10;97.50;;;;;;5135173;27;20476;-60
2021/01/19 06:37:08;;;;;;;7.50;4.38;;;5.20;97.10;;;;;;5135258;27;20050;-60
2021/01/19 06:39:36;;;;;;;7.73;4.37;;;5.20;96.90;;;;;;5135430;27;20135;-59
2021/01/19 06:42:14;;;;;;;6.72;4.68;;;5.20;96.80;;;;;;5135317;27;20043;-60
2021/01/19 06:44:45;;;;;;;6.88;5.13;;;5.20;97.10;;;;;;5135284;27;20047;-60
2021/01/19 06:47:14;;;;;;;6.75;4.47;;;5.20;97.00;;;;;;5135246;27;20051;-60
2021/01/19 06:49:40;;;;;;;5.88;4.57;;;5.20;97.10;;;;;;5135131;27;20043;-60
2021/01/19 06:52:08;;;;;;;6.28;4.85;;;5.20;97.00;;;;;;5134828;27;20047;-60
2021/01/19 06:54:52;;;;;;;7.18;5.13;;;5.20;96.90;;;;;;5135166;27;20115;-60
2021/01/19 06:57:31;;;;;;;6.22;5.28;;;5.20;97.00;;;;;;5134810;27;20088;-60
2021/01/19 07:00:20;;;;;;;6.88;4.70;;;5.20;97.00;;;;;;5135149;27;20089;-60
2021/01/19 07:02:48;;;;;;;5.70;4.53;;;5.20;96.90;;;;;;5135071;27;20050;-60
2021/01/19 07:05:17;;;;;;;5.03;4.53;;;5.30;96.80;;;;;;5134651;27;20122;-60
2021/01/19 07:07:45;;;;;;;7.80;4.60;;;5.30;96.90;;;;;;5131653;27;20043;-60
2021/01/19 07:10:32;;;;;;;5.15;4.60;;;5.30;96.90;;;;;;5134790;27;20100;-60
2021/01/19 07:12:59;;;;;;;6.07;4.82;;;5.30;97.00;;;;;;5134566;27;20043;-60
2021/01/19 07:16:06;;;;;;;6.60;5.10;;;5.30;96.90;;;;;;5134738;27;20050;-60
2021/01/19 07:18:41;;;;;;;10.02;4.78;;;5.30;97.10;;;;;;5071076;28;20036;-60
2021/01/19 07:21:11;;;;;;;8.40;5.00;;;5.30;97.00;;;;;;5071447;28;20045;-60
2021/01/19 07:23:47;;;;;;;7.25;4.60;;;5.30;97.00;;;;;;5071393;28;20040;-59
2021/01/19 07:26:17;;;;;;;6.55;4.78;;;5.30;97.00;;;;;;5071215;28;20045;-59
2021/01/19 07:28:43;;;;;;;5.65;4.50;;;5.30;97.00;;;;;;5071248;28;20044;-60
2021/01/19 07:31:10;;;;;;;6.72;4.22;;;5.40;97.00;;;;;;5054595;28;20036;-60
2021/01/19 07:33:39;;;;;;;5.47;4.30;;;5.40;97.00;;;;;;5071107;28;20123;-60
2021/01/19 07:36:05;;;;;;;5.20;3.75;;;5.40;97.00;;;;;;5054433;28;20413;-60
2021/01/19 07:38:31;;;;;;;5.53;5.03;;;5.50;96.90;;;;;;5054495;28;20040;-60
2021/01/19 07:40:58;;;;;;;6.07;5.00;;;5.50;97.10;;;;;;5071194;28;20067;-60
2021/01/19 07:43:25;;;;;;;6.15;4.93;;;5.50;97.50;;;;;;5071129;28;20451;-60
2021/01/19 07:45:53;;;;;;;5.97;5.00;;;5.50;97.30;;;;;;5070890;28;20406;-60
2021/01/19 07:48:35;;;;;;;9.32;5.15;;;5.50;97.20;;;;;;5070707;28;20049;-60
2021/01/19 07:51:17;;;;;;;6.13;4.53;;;5.50;97.40;;;;;;5070575;28;20051;-59
2021/01/19 07:53:54;;;;;;;9.25;5.18;;;5.50;97.30;;;;;;5076876;28;20060;-60
2021/01/19 07:56:26;;;;;;;7.72;5.25;;;5.50;97.30;;;;;;5134127;27;20066;-60
2021/01/19 07:58:53;;;;;;;5.47;4.95;;;5.50;97.50;;;;;;5134198;27;20039;-59
2021/01/19 08:01:29;;;;;;;6.07;5.00;;;5.60;97.30;;;;;;5134063;27;20045;-60
2021/01/19 08:04:06;;;;;;;9.25;5.22;;;5.60;97.20;;;;;;5133823;27;20103;-60
2021/01/19 08:06:32;;;;;;;5.97;4.50;;;5.60;97.20;;;;;;5134093;27;20092;-59
2021/01/19 08:09:14;;;;;;;5.60;5.05;;;5.60;97.10;;;;;;5133953;28;20426;-59
2021/01/19 08:11:44;;;;;;;5.93;4.57;;;5.60;97.20;;;;;;5133941;28;20047;-60
2021/01/19 08:14:11;;;;;;;5.18;4.68;;;5.70;97.00;;;;;;5133946;27;20061;-60
2021/01/19 08:16:40;;;;;;;5.80;4.60;;;5.70;97.20;;;;;;5133818;27;20480;-60
2021/01/19 08:19:14;;;;;;;4.93;4.43;;;5.70;97.10;;;;;;5134554;27;20540;-59
2021/01/19 08:21:51;;;;;;;6.90;4.88;;;5.70;97.30;;;;;;5137826;27;20039;-59
2021/01/19 08:24:20;;;;;;;6.07;4.97;;;5.70;97.10;;;;;;5137409;27;20067;-60
2021/01/19 08:26:46;;;;;;;6.03;4.50;;;5.70;97.20;;;;;;5137682;27;20047;-60
2021/01/19 08:29:12;;;;;;;6.03;5.28;;;5.80;97.10;;;;;;5137670;27;20099;-60
2021/01/19 08:31:37;;;;;;;6.20;5.32;;;5.70;97.30;;;;;;5137370;27;20043;-60
2021/01/19 08:34:07;;;;;;;4.82;4.28;;;5.70;97.40;;;;;;5137274;27;20456;-60
2021/01/19 08:36:35;;;;;;;5.20;4.57;;;5.80;97.20;;;;;;5137128;27;20445;-59
2021/01/19 08:39:04;;;;;;;5.13;4.47;;;5.80;97.40;;;;;;5137425;27;20039;-59
2021/01/19 08:41:30;;;;;;;;;;;5.80;97.10;;;;;;5137918;27;20125;-60
2021/01/19 08:43:59;;;;;;;4.70;4.20;;;5.80;97.10;;;;;;5137193;27;19915;-59
2021/01/19 08:46:28;;;;;;;7.57;3.92;;;5.80;97.10;;;;;;5137221;27;20130;-59
2021/01/19 08:49:04;;;;;;;5.45;4.60;;;5.80;97.10;;;;;;5136392;27;20140;-59
2021/01/19 08:51:29;;;;;;;5.20;4.70;;;5.80;97.30;;;;;;5137429;27;20122;-59
2021/01/19 08:53:56;;;;;;;4.65;4.10;;;5.80;97.30;;;;;;5136955;27;20464;-60
2021/01/19 08:56:23;;;;;;;5.20;3.83;;;5.80;97.40;;;;;;5137196;27;20063;-59
2021/01/19 08:58:49;;;;;;;4.18;3.78;;;5.80;97.40;;;;;;5136827;27;20511;-59
2021/01/19 09:01:16;;;;;;;5.10;3.90;;;5.80;97.30;;;;;;5137075;27;20035;-60
2021/01/19 09:03:42;;;;;;;4.57;3.55;;;5.80;97.40;;;;;;5137106;27;20431;-60
2021/01/19 09:06:09;;;;;;;4.45;4.05;;;5.80;97.30;;;;;;5136909;27;20050;-59
2021/01/19 09:08:38;;;;;;;4.18;3.78;;;5.80;97.40;;;;;;5136991;27;20099;-60
2021/01/19 09:11:08;;;;;;;;;;;5.80;97.50;;;;;;5137225;27;20035;-59
2021/01/19 09:13:39;;;;;;;4.85;3.90;;;5.80;97.40;;;;;;5136899;27;19992;-59
2021/01/19 09:16:06;;;;;;;3.55;3.10;;;5.80;97.70;;;;;;5136669;27;20039;-60
2021/01/19 09:18:32;;;;;;;6.18;4.28;;;5.80;97.70;;;;;;5136687;27;20054;-60
2021/01/19 09:21:10;;;;;;;3.70;3.30;;;5.80;97.80;;;;;;5136301;27;20126;-59
2021/01/19 09:23:36;;;;;;;4.03;3.42;;;5.90;97.70;;;;;;5136887;27;20799;-60
2021/01/19 09:26:07;;;;;;;4.50;3.08;;;5.90;97.60;;;;;;5136684;27;20503;-60
2021/01/19 09:28:37;;;;;;;3.20;2.90;;;5.90;97.70;;;;;;5136242;27;20069;-60
2021/01/19 09:31:09;;;;;;;5.18;3.33;;;5.90;97.80;;;;;;5135683;27;20488;-60
2021/01/19 09:33:35;;;;;;;3.60;3.30;;;5.90;97.70;;;;;;5136275;27;20039;-60
2021/01/19 09:36:06;;;;;;;3.35;3.05;;;5.90;97.90;;;;;;5136457;27;20046;-60
2021/01/19 09:38:32;;;;;;;3.53;2.88;;;5.90;97.90;;;;;;5136168;27;20072;-60
2021/01/19 09:40:57;;;;;;;3.58;3.13;;;5.90;97.90;;;;;;5136311;27;20039;-60
2021/01/19 09:43:23;;;;;;;3.67;3.03;;;6.00;97.90;;;;;;5136236;27;20400;-59
2021/01/19 09:45:51;;;;;;;4.10;3.40;;;6.00;98.00;;;;;;5136083;27;20422;-60
2021/01/19 09:48:18;;;;;;;3.83;3.38;;;6.00;98.10;;;;;;5136126;27;20365;-60
2021/01/19 09:50:45;;;;;;;4.97;3.50;;;6.00;98.20;;;;;;5136086;27;20078;-60
2021/01/19 09:53:10;;;;;;;4.93;3.42;;;6.00;98.10;;;;;;5135840;27;20082;-60
2021/01/19 09:55:37;;;;;;;3.97;3.40;;;6.00;98.30;;;;;;5135930;27;20496;-60
2021/01/19 09:58:05;;;;;;;4.18;3.67;;;6.00;98.30;;;;;;5135592;27;20488;-60
2021/01/19 10:00:39;;;;;;;4.50;3.30;;;6.00;98.30;;;;;;5136018;27;20472;-60
2021/01/19 10:03:20;;;;;;;4.00;3.20;;;6.10;98.40;;;;;;5135732;27;20039;-60
2021/01/19 10:06:07;;;;;;;3.90;3.50;;;6.10;98.50;;;;;;5135805;27;20448;-59
2021/01/19 10:08:35;;;;;;;4.60;3.75;;;6.10;98.50;;;;;;5135185;27;20529;-60
2021/01/19 10:11:01;;;;;;;4.05;3.35;;;6.10;98.60;;;;;;5135768;27;20047;-59
2021/01/19 10:13:29;;;;;;;4.40;4.00;;;6.10;98.70;;;;;;5135541;27;20103;-60
2021/01/19 10:16:05;;;;;;;4.05;3.65;;;6.20;98.90;;;;;;5135346;27;20043;-60
2021/01/19 10:18:32;;;;;;;4.05;3.40;;;6.20;99.20;;;;;;5135610;27;20047;-60
2021/01/19 10:20:58;;;;;;;4.15;3.75;;;6.30;99.20;;;;;;5135619;27;20046;-60
2021/01/19 10:23:26;;;;;;;7.82;4.47;;;6.40;99.10;;;;;;5135301;27;20127;-60
2021/01/19 10:26:11;;;;;;;6.60;4.60;;;6.40;98.90;;;;;;5135163;27;20039;-60
2021/01/19 10:28:46;;;;;;;4.28;3.88;;;6.40;99.00;;;;;;5135195;27;20031;-60
2021/01/19 10:31:19;;;;;;;6.32;4.63;;;6.40;99.00;;;;;;5135086;27;20448;-60
2021/01/19 10:34:05;;;;;;;5.15;4.25;;;6.40;99.30;;;;;;5135484;27;20059;-60
2021/01/19 10:36:32;;;;;;;7.03;4.55;;;6.40;99.80;;;;;;5135364;27;20062;-60
2021/01/19 10:39:08;;;;;;;7.30;5.10;;;6.50;99.80;;;;;;5134920;27;20526;-60
2021/01/19 10:41:34;;;;;;;6.75;4.75;;;6.50;99.80;;;;;;5135013;27;20043;-60
2021/01/19 10:44:00;;;;;;;8.20;5.32;;;6.60;99.90;;;;;;5134644;27;20476;-60
2021/01/19 10:46:31;;;;;;;8.02;5.70;;;6.60;99.90;;;;;;5134747;27;20087;-60
2021/01/19 10:49:00;;;;;;;8.00;5.95;;;6.70;99.90;;;;;;5134983;27;20417;-60
2021/01/19 10:51:29;;;;;;;9.40;6.18;;;6.70;99.90;;;;;;5134955;27;20047;-60
2021/01/19 10:54:09;;;;;;;8.00;5.70;;;6.80;99.90;;;;;;5134380;27;20139;-60
2021/01/19 10:56:37;;;;;;;10.77;6.20;;;6.80;99.90;;;;;;5134716;27;20039;-60
2021/01/19 10:59:03;;;;;;;10.07;6.13;;;6.90;99.90;;;;;;5134529;27;20130;-60
2021/01/19 11:01:29;;;;;;;10.00;6.80;;;6.90;99.90;;;;;;5134735;27;20078;-60
2021/01/19 11:03:54;;;;;;;15.02;7.60;;;6.90;99.90;;;;;;5134835;27;20486;-60
2021/01/19 11:06:21;;;;;;;11.27;7.80;;;7.00;99.90;;;;;;5134322;27;20031;-60
2021/01/19 11:08:47;;;;;;;16.52;8.30;;;7.00;99.90;;;;;;5134185;27;20472;-60
2021/01/19 11:11:13;;;;;;;14.02;8.02;;;7.10;99.90;;;;;;5134700;27;20066;-60
2021/01/19 11:13:39;;;;;;;16.33;8.88;;;7.10;99.90;;;;;;5134505;27;20045;-60
2021/01/19 11:16:06;;;;;;;22.33;8.82;;;7.20;99.90;;;;;;5134261;27;20063;-61
2021/01/19 11:18:34;;;;;;;19.38;8.25;;;7.20;99.90;;;;;;5134435;27;20046;-60
2021/01/19 11:21:01;;;;;;;17.63;7.70;;;7.20;99.90;;;;;;5134312;27;20039;-60
2021/01/19 11:23:27;;;;;;;17.08;7.97;;;7.30;99.90;;;;;;5134440;27;20035;-61
2021/01/19 11:25:52;;;;;;;18.40;7.30;;;7.40;99.90;;;;;;5134389;27;20099;-60
2021/01/19 11:28:18;;;;;;;16.00;6.68;;;7.40;99.90;;;;;;5134037;27;20492;-60
2021/01/19 11:30:44;;;;;;;23.10;8.23;;;7.40;99.90;;;;;;5132987;28;20035;-60
2021/01/19 11:33:09;;;;;;;17.83;7.78;;;7.50;99.90;;;;;;5134175;27;20047;-60
2021/01/19 11:35:35;;;;;;;17.17;7.45;;;7.50;99.90;;;;;;5134203;28;20058;-60
2021/01/19 11:38:03;;;;;;;19.55;6.60;;;7.50;99.90;;;;;;5134056;27;20503;-60
2021/01/19 11:40:28;;;;;;;17.17;6.88;;;7.60;99.90;;;;;;5133927;27;20488;-60
2021/01/19 11:42:54;;;;;;;20.00;7.53;;;7.70;99.90;;;;;;5134418;27;20129;-58
2021/01/19 11:45:20;;;;;;;22.75;7.40;;;7.70;99.90;;;;;;5134120;28;20747;-57
2021/01/19 11:47:46;;;;;;;26.08;7.88;;;7.70;99.90;;;;;;5134214;28;20100;-57
2021/01/19 11:50:12;;;;;;;32.03;8.57;;;7.80;99.90;;;;;;5133899;28;20093;-57
2021/01/19 11:52:38;;;;;;;33.80;9.07;;;7.80;99.90;;;;;;5133986;27;20051;-59
2021/01/19 11:55:06;;;;;;;29.13;8.27;;;7.90;99.90;;;;;;5136578;27;20054;-57
2021/01/19 11:57:32;;;;;;;29.40;7.25;;;7.90;99.90;;;;;;5137017;27;20039;-57
2021/01/19 11:59:57;;;;;;;22.70;7.68;;;7.90;99.90;;;;;;5138047;27;20115;-58
2021/01/19 12:02:23;;;;;;;27.52;7.65;;;8.00;99.90;;;;;;5138015;27;20049;-58
2021/01/19 12:04:49;;;;;;;19.27;7.60;;;8.00;99.90;;;;;;5138070;27;20043;-57
2021/01/19 12:07:15;;;;;;;22.40;7.43;;;8.00;99.90;;;;;;5137993;27;20043;-58
2021/01/19 12:09:40;;;;;;;21.10;5.82;;;8.10;99.90;;;;;;5138144;27;20043;-58
2021/01/19 12:12:07;;;;;;;17.70;5.50;;;8.20;99.90;;;;;;5137757;27;20464;-58
2021/01/19 12:14:33;;;;;;;20.77;5.53;;;8.20;99.90;;;;;;5137595;27;20577;-58
2021/01/19 12:16:59;;;;;;;14.10;4.45;;;8.30;99.90;;;;;;5137473;27;20179;-58
2021/01/19 12:19:25;;;;;;;16.80;4.20;;;8.30;99.90;;;;;;5137899;27;20043;-58
2021/01/19 12:21:58;;;;;;;18.50;4.35;;;8.20;99.90;;;;;;5137730;27;20050;-58
2021/01/19 12:24:24;;;;;;;15.13;4.43;;;8.30;99.80;;;;;;5137793;27;20396;-58
2021/01/19 12:26:53;;;;;;;17.77;4.95;;;8.30;99.70;;;;;;5137620;27;20130;-58
2021/01/19 12:29:20;;;;;;;27.83;4.63;;;8.30;99.90;;;;;;5137720;27;20043;-59
2021/01/19 12:31:46;;;;;;;19.98;4.63;;;8.30;99.80;;;;;;5137419;27;20476;-58
2021/01/19 12:34:12;;;;;;;20.88;4.72;;;8.30;99.70;;;;;;5137510;27;20047;-58
2021/01/19 12:36:38;;;;;;;17.17;4.22;;;8.40;99.60;;;;;;5137741;27;20051;-58
2021/01/19 12:39:04;;;;;;;21.40;3.95;;;8.40;99.70;;;;;;5137381;27;20070;-58
2021/01/19 12:41:30;;;;;;;16.05;3.85;;;8.30;99.80;;;;;;5137041;27;20088;-58
2021/01/19 12:43:57;;;;;;;11.95;3.53;;;8.30;99.70;;;;;;5137044;27;20159;-58
2021/01/19 12:46:23;;;;;;;19.33;4.22;;;8.40;99.60;;;;;;5137310;27;20050;-58
2021/01/19 12:48:48;;;;;;;18.33;4.03;;;8.40;99.40;;;;;;5137201;27;20043;-58
2021/01/19 12:51:19;;;;;;;16.17;3.78;;;8.40;99.40;;;;;;5137443;27;20050;-59
2021/01/19 12:53:49;;;;;;;15.70;3.85;;;8.50;99.10;;;;;;5136601;27;20054;-58
2021/01/19 12:56:17;;;;;;;22.45;4.53;;;8.50;99.10;;;;;;5136971;27;20049;-58
2021/01/19 12:58:43;;;;;;;21.90;4.70;;;8.50;98.80;;;;;;5137068;27;20049;-58
2021/01/19 13:01:10;;;;;;;13.70;3.78;;;8.60;98.80;;;;;;5137124;27;20074;-58